Time;durP1;ratioP1;P1;durP2;ratioP2;P2;SDS_P1;SDS_P2;PMS_P1;PMS_P2;Temp;Humidity;BMP_temperature;BMP_pressure;BME280_temperature;BME280_humidity;BME280_pressure;Samples;Min_cycle;Max_cycle;Signal;HPM_P1;HPM_P2
2022/08/05 00:02:13;;;;;;;;;;;;;;;;;;5057387;28;19925;-77
2022/08/05 00:04:39;;;;;;;;;;;;;;;;;;5056943;28;19952;-77
2022/08/05 00:07:06;;;;;;;;;;;;;;;;;;5056823;28;20011;-77
2022/08/05 00:09:32;;;;;;;;;;;;;;;;;;5056269;28;20539;-76
2022/08/05 00:11:58;;;;;;;;;;;;;;;;;;5056635;28;20015;-77
2022/08/05 00:14:25;;;;;;;;;;;;;;;;;;5055983;28;20294;-77
2022/08/05 00:16:53;;;;;;;;;;;;;;;;;;5055876;28;19929;-77
2022/08/05 00:19:19;;;;;;;;;;;;;;;;;;5055355;28;19925;-77
2022/08/05 00:21:46;;;;;;;;;;;;;;;;;;5055677;28;20334;-77
2022/08/05 00:24:12;;;;;;;;;;;;;;;;;;5055733;28;20011;-77
2022/08/05 00:26:39;;;;;;;;;;;;;;;;;;5055562;28;20023;-77
2022/08/05 00:29:05;;;;;;;;;;;;;;;;;;5054957;28;19925;-77
2022/08/05 00:31:31;;;;;;;;;;;;;;;;;;5055425;28;20007;-77
2022/08/05 00:33:59;;;;;;;;;;;;;;;;;;5055691;28;19964;-77
2022/08/05 00:36:26;;;;;;;;;;;;;;;;;;5056107;28;19926;-77
2022/08/05 00:38:52;;;;;;;;;;;;;;;;;;5055235;28;19952;-77
2022/08/05 00:41:27;;;;;;;;;;;;;;;;;;5055055;28;19924;-77
2022/08/05 00:43:53;;;;;;;;;;;;;;;;;;5055827;28;19924;-78
2022/08/05 00:46:20;;;;;;;;;;;;;;;;;;5056988;28;20012;-77
2022/08/05 00:48:46;;;;;;;;;;;;;;;;;;5057190;28;19935;-78
2022/08/05 00:51:14;;;;;;;;;;;;;;;;;;5057021;28;19971;-78
2022/08/05 00:53:40;;;;;;;;;;;;;;;;;;5057202;28;20015;-78
2022/08/05 00:56:07;;;;;;;;;;;;;;;;;;5057070;28;19929;-78
2022/08/05 00:58:34;;;;;;;;;;;;;;;;;;5057296;28;19929;-78
2022/08/05 01:01:00;;;;;;;;;;;;;;;;;;5077099;28;19959;-78
2022/08/05 01:03:29;;;;;;;;;;;;;;;;;;5097704;28;19979;-78
2022/08/05 01:05:55;;;;;;;;;;;;;;;;;;5097555;28;20271;-78
2022/08/05 01:08:23;;;;;;;;;;;;;;;;;;5099371;28;19977;-78
2022/08/05 01:10:52;;;;;;;;;;;;;;;;;;5097226;28;19924;-77
2022/08/05 01:13:21;;;;;;;;;;;;;;;;;;5097350;28;19955;-78
2022/08/05 01:15:52;;;;;;;;;;;;;;;;;;5099993;28;20019;-77
2022/08/05 01:18:23;;;;;;;;;;;;;;;;;;5098907;28;19967;-78
2022/08/05 01:20:51;;;;;;;;;;;;;;;;;;5107051;28;19924;-77
2022/08/05 01:23:28;;;;;;;;;;;;;;;;;;5109783;28;20363;-78
2022/08/05 01:26:03;;;;;;;;;;;;;;;;;;5097699;28;19971;-77
2022/08/05 01:28:34;;;;;;;;;;;;;;;;;;5097260;28;19928;-76
2022/08/05 01:31:02;;;;;;;;;;;;;;;;;;5097026;28;19991;-76
2022/08/05 01:33:33;;;;;;;;;;;;;;;;;;5097783;28;20023;-78
2022/08/05 01:36:01;;;;;;;;;;;;;;;;;;5098028;28;19967;-77
2022/08/05 01:38:27;;;;;;;;;;;;;;;;;;5116322;28;19934;-78
2022/08/05 01:40:55;;;;;;;;;;;;;;;;;;5115048;28;19924;-78
2022/08/05 01:43:22;;;;;;;;;;;;;;;;;;5098370;28;19978;-78
2022/08/05 01:45:50;;;;;;;;;;;;;;;;;;5097165;28;20301;-78
2022/08/05 01:48:17;;;;;;;;;;;;;;;;;;5096569;28;19960;-78
2022/08/05 01:50:45;;;;;;;;;;;;;;;;;;5095080;28;19924;-78
2022/08/05 01:53:13;;;;;;;;;;;;;;;;;;5095269;28;20287;-78
2022/08/05 01:55:41;;;;;;;;;;;;;;;;;;5095048;28;19931;-78
2022/08/05 01:58:09;;;;;;;;;;;;;;;;;;5094578;28;20425;-78
2022/08/05 02:00:37;;;;;;;;;;;;;;;;;;5088120;28;19967;-78
2022/08/05 02:03:06;;;;;;;;;;;;;;;;;;5074944;28;19970;-78
2022/08/05 02:05:34;;;;;;;;;;;;;;;;;;5074965;28;20031;-77
2022/08/05 02:08:01;;;;;;;;;;;;;;;;;;5076660;28;19987;-78
2022/08/05 02:10:30;;;;;;;;;;;;;;;;;;5076611;28;19971;-79
2022/08/05 02:13:02;;;;;;;;;;;;;;;;;;5076481;28;19979;-77
2022/08/05 02:15:33;;;;;;;;;;;;;;;;;;5076873;28;20027;-78
2022/08/05 02:18:02;;;;;;;;;;;;;;;;;;5075952;28;19931;-78
2022/08/05 02:20:40;;;;;;;;;;;;;;;;;;5076413;28;19978;-78
2022/08/05 02:23:08;;;;;;;;;;;;;;;;;;5076560;28;19968;-78
2022/08/05 02:25:36;;;;;;;;;;;;;;;;;;5076654;28;19928;-79
2022/08/05 02:28:03;;;;;;;;;;;;;;;;;;5075766;28;20446;-78
2022/08/05 02:30:32;;;;;;;;;;;;;;;;;;5076270;28;19959;-79
2022/08/05 02:33:00;;;;;;;;;;;;;;;;;;5076588;28;19974;-78
2022/08/05 02:35:28;;;;;;;;;;;;;;;;;;5076040;28;20023;-78
2022/08/05 02:37:56;;;;;;;;;;;;;;;;;;5075573;28;19924;-79
2022/08/05 02:40:24;;;;;;;;;;;;;;;;;;5075385;28;19925;-78
2022/08/05 02:42:51;;;;;;;;;;;;;;;;;;5076081;28;19947;-77
2022/08/05 02:45:18;;;;;;;;;;;;;;;;;;5075674;28;19979;-79
2022/08/05 02:47:46;;;;;;;;;;;;;;;;;;5076266;28;19971;-78
2022/08/05 02:50:13;;;;;;;;;;;;;;;;;;5075588;28;19964;-79
2022/08/05 02:52:40;;;;;;;;;;;;;;;;;;5075757;28;20027;-79
2022/08/05 02:55:09;;;;;;;;;;;;;;;;;;5075761;28;19979;-77
2022/08/05 02:57:38;;;;;;;;;;;;;;;;;;5075195;28;19988;-78
2022/08/05 03:00:05;;;;;;;;;;;;;;;;;;5077775;28;19925;-79
2022/08/05 03:02:34;;;;;;;;;;;;;;;;;;5096031;28;19974;-78
2022/08/05 03:05:01;;;;;;;;;;;;;;;;;;5096305;28;19970;-79
2022/08/05 03:07:28;;;;;;;;;;;;;;;;;;5096939;28;20081;-77
2022/08/05 03:09:56;;;;;;;;;;;;;;;;;;5096104;28;20467;-78
2022/08/05 03:12:33;;;;;;;;;;;;;;;;;;5100292;28;20416;-78
2022/08/05 03:15:00;;;;;;;;;;;;;;;;;;5095860;28;19975;-78
2022/08/05 03:17:26;;;;;;;;;;;;;;;;;;5095437;28;19960;-78
2022/08/05 03:19:53;;;;;;;;;;;;;;;;;;5095445;28;20022;-78
2022/08/05 03:22:20;;;;;;;;;;;;;;;;;;5096862;28;20389;-76
2022/08/05 03:27:50;;;;;;;;;;;;;;;;;;5061993;28;19923;-79
2022/08/05 03:30:16;;;;;;;;;;;;;;;;;;5057255;28;20019;-76
2022/08/05 03:32:43;;;;;;;;;;;;;;;;;;5059596;28;19931;-76
2022/08/05 03:35:10;;;;;;;;;;;;;;;;;;5059538;28;20502;-77
2022/08/05 03:37:36;;;;;;;;;;;;;;;;;;5059410;28;20012;-77
2022/08/05 03:40:07;;;;;;;;;;;;;;;;;;5059823;28;19924;-75
2022/08/05 03:42:34;;;;;;;;;;;;;;;;;;5060565;28;20338;-76
2022/08/05 03:45:01;;;;;;;;;;;;;;;;;;5060108;28;19928;-77
2022/08/05 03:47:28;;;;;;;;;;;;;;;;;;5059954;28;19975;-76
2022/08/05 03:49:54;;;;;;;;;;;;;;;;;;5060749;28;19971;-76
2022/08/05 03:52:24;;;;;;;;;;;;;;;;;;5060004;28;20362;-75
2022/08/05 03:54:53;;;;;;;;;;;;;;;;;;5060461;28;19979;-77
2022/08/05 03:57:23;;;;;;;;;;;;;;;;;;5061360;28;19925;-77
2022/08/05 03:59:53;;;;;;;;;;;;;;;;;;5060746;28;20024;-76
2022/08/05 04:02:22;;;;;;;;;;;;;;;;;;5099982;28;20264;-78
2022/08/05 04:04:49;;;;;;;;;;;;;;;;;;5099916;28;19987;-78
2022/08/05 04:07:15;;;;;;;;;;;;;;;;;;5098185;28;19931;-78
2022/08/05 04:09:42;;;;;;;;;;;;;;;;;;5099029;28;19995;-78
2022/08/05 04:12:08;;;;;;;;;;;;;;;;;;5101330;28;19960;-78
2022/08/05 04:14:35;;;;;;;;;;;;;;;;;;5103802;28;20022;-78
2022/08/05 04:17:02;;;;;;;;;;;;;;;;;;5103950;28;19996;-78
2022/08/05 04:19:30;;;;;;;;;;;;;;;;;;5106468;28;20014;-78
2022/08/05 04:21:56;;;;;;;;;;;;;;;;;;5106383;28;19958;-77
2022/08/05 04:24:23;;;;;;;;;;;;;;;;;;5106079;28;19924;-78
2022/08/05 04:26:49;;;;;;;;;;;;;;;;;;5103838;28;19959;-79
2022/08/05 04:29:16;;;;;;;;;;;;;;;;;;5104334;28;20333;-76
2022/08/05 04:31:42;;;;;;;;;;;;;;;;;;5108263;28;19974;-75
2022/08/05 04:34:08;;;;;;;;;;;;;;;;;;5107599;28;19924;-76
2022/08/05 04:36:36;;;;;;;;;;;;;;;;;;5108155;28;19956;-75
2022/08/05 04:39:03;;;;;;;;;;;;;;;;;;5107756;28;19964;-78
2022/08/05 04:41:30;;;;;;;;;;;;;;;;;;5098339;28;19935;-77
2022/08/05 04:43:57;;;;;;;;;;;;;;;;;;5095336;28;19931;-79
2022/08/05 04:46:23;;;;;;;;;;;;;;;;;;5095573;28;19924;-78
2022/08/05 04:48:50;;;;;;;;;;;;;;;;;;5095145;28;20007;-77
2022/08/05 04:51:16;;;;;;;;;;;;;;;;;;5095271;28;19978;-77
2022/08/05 04:53:44;;;;;;;;;;;;;;;;;;5095253;28;19925;-76
2022/08/05 04:56:10;;;;;;;;;;;;;;;;;;5095392;28;20015;-77
2022/08/05 04:58:37;;;;;;;;;;;;;;;;;;5095046;28;20019;-77
2022/08/05 05:01:03;;;;;;;;;;;;;;;;;;5095194;28;20007;-78
2022/08/05 05:03:30;;;;;;;;;;;;;;;;;;5095432;28;19969;-77
2022/08/05 05:05:56;;;;;;;;;;;;;;;;;;5095406;28;20035;-78
2022/08/05 05:08:23;;;;;;;;;;;;;;;;;;5095079;28;19973;-78
2022/08/05 05:10:50;;;;;;;;;;;;;;;;;;5095371;28;19960;-78
2022/08/05 05:13:18;;;;;;;;;;;;;;;;;;5094905;28;20293;-77
2022/08/05 05:15:45;;;;;;;;;;;;;;;;;;5095464;28;19967;-78
2022/08/05 05:18:13;;;;;;;;;;;;;;;;;;5094549;28;20421;-77
2022/08/05 05:20:39;;;;;;;;;;;;;;;;;;5094519;28;20386;-77
2022/08/05 05:23:06;;;;;;;;;;;;;;;;;;5094722;28;20369;-77
2022/08/05 05:25:32;;;;;;;;;;;;;;;;;;5094616;28;19924;-78
2022/08/05 05:28:00;;;;;;;;;;;;;;;;;;5094190;28;19981;-77
2022/08/05 05:30:27;;;;;;;;;;;;;;;;;;5094455;28;19994;-78
2022/08/05 05:32:53;;;;;;;;;;;;;;;;;;5094773;28;19971;-77
2022/08/05 05:35:21;;;;;;;;;;;;;;;;;;5094375;28;19959;-78
2022/08/05 05:37:48;;;;;;;;;;;;;;;;;;5095124;28;20019;-76
2022/08/05 05:40:15;;;;;;;;;;;;;;;;;;5095122;28;19924;-78
2022/08/05 05:42:41;;;;;;;;;;;;;;;;;;5094819;28;19924;-78
2022/08/05 05:45:10;;;;;;;;;;;;;;;;;;5094534;28;20362;-76
2022/08/05 05:47:36;;;;;;;;;;;;;;;;;;5094210;28;19930;-78
2022/08/05 05:50:03;;;;;;;;;;;;;;;;;;5094156;28;20018;-77
2022/08/05 05:52:29;;;;;;;;;;;;;;;;;;5094635;28;19924;-78
2022/08/05 05:54:58;;;;;;;;;;;;;;;;;;5094419;28;20023;-78
2022/08/05 05:57:25;;;;;;;;;;;;;;;;;;5094024;28;19967;-77
2022/08/05 05:59:51;;;;;;;;;;;;;;;;;;5093697;28;20536;-78
2022/08/05 06:02:19;;;;;;;;;;;;;;;;;;5095627;28;19963;-78
2022/08/05 06:04:45;;;;;;;;;;;;;;;;;;5094674;28;20019;-78
2022/08/05 06:07:12;;;;;;;;;;;;;;;;;;5094327;28;19982;-78
2022/08/05 06:09:38;;;;;;;;;;;;;;;;;;5093832;28;19928;-78
2022/08/05 06:12:05;;;;;;;;;;;;;;;;;;5094786;28;19924;-79
2022/08/05 06:14:32;;;;;;;;;;;;;;;;;;5094615;28;19971;-78
2022/08/05 06:16:59;;;;;;;;;;;;;;;;;;5094495;28;20089;-77
2022/08/05 06:19:27;;;;;;;;;;;;;;;;;;5093597;28;20431;-77
2022/08/05 06:21:53;;;;;;;;;;;;;;;;;;5094200;28;19924;-78
2022/08/05 06:24:20;;;;;;;;;;;;;;;;;;5093991;28;19924;-77
2022/08/05 06:26:46;;;;;;;;;;;;;;;;;;5094325;28;19931;-76
2022/08/05 06:29:13;;;;;;;;;;;;;;;;;;5094377;28;20007;-78
2022/08/05 06:31:39;;;;;;;;;;;;;;;;;;5095247;28;19971;-77
2022/08/05 06:34:06;;;;;;;;;;;;;;;;;;5095090;28;20333;-77
2022/08/05 06:36:34;;;;;;;;;;;;;;;;;;5094710;28;19967;-78
2022/08/05 06:39:00;;;;;;;;;;;;;;;;;;5095745;28;19971;-80
2022/08/05 06:41:26;;;;;;;;;;;;;;;;;;5100872;28;19974;-78
2022/08/05 06:43:53;;;;;;;;;;;;;;;;;;5101982;28;19931;-78
2022/08/05 06:46:19;;;;;;;;;;;;;;;;;;5102386;28;19971;-78
2022/08/05 06:48:46;;;;;;;;;;;;;;;;;;5098291;28;19925;-79
2022/08/05 06:51:12;;;;;;;;;;;;;;;;;;5094282;28;19968;-78
2022/08/05 06:53:40;;;;;;;;;;;;;;;;;;5094313;28;19974;-78
2022/08/05 06:56:07;;;;;;;;;;;;;;;;;;5093857;28;19967;-78
2022/08/05 06:58:33;;;;;;;;;;;;;;;;;;5094013;28;20023;-77
2022/08/05 07:01:00;;;;;;;;;;;;;;;;;;5094231;28;19930;-78
2022/08/05 07:03:27;;;;;;;;;;;;;;;;;;5093965;28;20015;-78
2022/08/05 07:05:53;;;;;;;;;;;;;;;;;;5094469;28;19924;-78
2022/08/05 07:08:21;;;;;;;;;;;;;;;;;;5092941;28;19924;-78
2022/08/05 07:10:49;;;;;;;;;;;;;;;;;;5092900;28;19931;-77
2022/08/05 07:18:43;;;;;;;;;;;;;;;;;;5092943;28;19931;-77
2022/08/05 07:21:09;;;;;;;;;;;;;;;;;;5092612;28;19928;-78
2022/08/05 07:23:36;;;;;;;;;;;;;;;;;;5093082;28;19924;-78
2022/08/05 07:26:04;;;;;;;;;;;;;;;;;;5092933;28;19931;-78
2022/08/05 07:28:30;;;;;;;;;;;;;;;;;;5092793;28;19964;-78
2022/08/05 07:30:57;;;;;;;;;;;;;;;;;;5092850;28;20024;-80
2022/08/05 07:33:23;;;;;;;;;;;;;;;;;;5093294;28;19959;-79
2022/08/05 07:35:50;;;;;;;;;;;;;;;;;;5093011;28;19924;-79
2022/08/05 07:38:17;;;;;;;;;;;;;;;;;;5093358;28;19967;-78
2022/08/05 07:40:45;;;;;;;;;;;;;;;;;;5092885;28;20011;-79
2022/08/05 07:43:13;;;;;;;;;;;;;;;;;;5093716;28;19924;-78
2022/08/05 07:45:40;;;;;;;;;;;;;;;;;;5093140;28;20030;-78
2022/08/05 07:48:07;;;;;;;;;;;;;;;;;;5094757;28;20016;-79
2022/08/05 07:50:33;;;;;;;;;;;;;;;;;;5102487;28;19970;-78
2022/08/05 07:53:00;;;;;;;;;;;;;;;;;;5101234;28;19971;-80
2022/08/05 07:55:26;;;;;;;;;;;;;;;;;;5097230;28;19930;-79
2022/08/05 07:57:53;;;;;;;;;;;;;;;;;;5097127;28;19967;-78
2022/08/05 08:00:21;;;;;;;;;;;;;;;;;;5096623;28;20019;-78
2022/08/05 08:02:48;;;;;;;;;;;;;;;;;;5096843;28;19983;-80
2022/08/05 08:05:15;;;;;;;;;;;;;;;;;;5096948;28;19987;-77
2022/08/05 08:07:41;;;;;;;;;;;;;;;;;;5098704;28;19924;-78
2022/08/05 08:10:08;;;;;;;;;;;;;;;;;;5096829;28;19924;-78
2022/08/05 08:12:34;;;;;;;;;;;;;;;;;;5097533;28;20375;-80
2022/08/05 08:15:01;;;;;;;;;;;;;;;;;;5097593;28;19930;-79
2022/08/05 08:17:29;;;;;;;;;;;;;;;;;;5096474;28;20006;-79
2022/08/05 08:19:55;;;;;;;;;;;;;;;;;;5096373;28;20003;-77
2022/08/05 08:22:25;;;;;;;;;;;;;;;;;;5096670;28;20022;-78
2022/08/05 08:24:52;;;;;;;;;;;;;;;;;;5096788;28;19924;-78
2022/08/05 08:27:18;;;;;;;;;;;;;;;;;;5096211;28;19974;-78
2022/08/05 08:29:45;;;;;;;;;;;;;;;;;;5096327;28;19963;-77
2022/08/05 08:32:11;;;;;;;;;;;;;;;;;;5096309;28;19963;-80
2022/08/05 08:34:39;;;;;;;;;;;;;;;;;;5096147;28;19981;-79
2022/08/05 08:37:05;;;;;;;;;;;;;;;;;;5096132;28;19931;-79
2022/08/05 08:39:32;;;;;;;;;;;;;;;;;;5095229;28;20034;-78
2022/08/05 08:41:59;;;;;;;;;;;;;;;;;;5095561;28;20401;-77
2022/08/05 08:44:28;;;;;;;;;;;;;;;;;;5095686;28;19938;-79
2022/08/05 08:46:56;;;;;;;;;;;;;;;;;;5095630;28;20003;-78
2022/08/05 08:49:23;;;;;;;;;;;;;;;;;;5095365;28;20015;-78
2022/08/05 08:51:54;;;;;;;;;;;;;;;;;;5095883;28;19928;-77
2022/08/05 08:54:21;;;;;;;;;;;;;;;;;;5096563;28;20035;-78
2022/08/05 08:56:47;;;;;;;;;;;;;;;;;;5096090;28;20015;-78
2022/08/05 08:59:14;;;;;;;;;;;;;;;;;;5095163;28;19924;-77
2022/08/05 09:01:41;;;;;;;;;;;;;;;;;;5096016;28;20696;-79
2022/08/05 09:04:08;;;;;;;;;;;;;;;;;;5096058;28;19931;-76
2022/08/05 09:06:35;;;;;;;;;;;;;;;;;;5095478;28;20239;-78
2022/08/05 09:09:03;;;;;;;;;;;;;;;;;;5095414;28;20031;-78
2022/08/05 09:11:29;;;;;;;;;;;;;;;;;;5095709;28;19925;-77
2022/08/05 09:13:56;;;;;;;;;;;;;;;;;;5095936;28;20440;-79
2022/08/05 09:16:23;;;;;;;;;;;;;;;;;;5095765;28;19924;-77
2022/08/05 09:18:49;;;;;;;;;;;;;;;;;;5095929;28;19981;-78
2022/08/05 09:21:16;;;;;;;;;;;;;;;;;;5095604;28;20306;-77
2022/08/05 09:23:44;;;;;;;;;;;;;;;;;;5095476;28;19987;-77
2022/08/05 09:26:15;;;;;;;;;;;;;;;;;;5095569;28;20453;-77
2022/08/05 09:28:42;;;;;;;;;;;;;;;;;;5125615;22;19924;-87
2022/08/05 09:31:09;;;;;;;;;;;;;;;;;;5118260;28;19908;-87
2022/08/05 09:33:47;;;;;;;;;;;;;;;;;;5118401;28;19908;-87
2022/08/05 09:36:13;;;;;;;;;;;;;;;;;;5111514;28;19928;-88
2022/08/05 09:38:54;;;;;;;;;;;;;;;;;;5104065;28;20352;-88
2022/08/05 09:41:22;;;;;;;;;;;;;;;;;;5099666;28;19924;-88
2022/08/05 09:43:49;;;;;;;;;;;;;;;;;;5098292;28;19925;-88
2022/08/05 09:46:33;;;;;;;;;;;;;;;;;;5097508;28;19924;-87
2022/08/05 09:49:03;;;;;;;;;;;;;;;;;;5098088;28;19924;-88
2022/08/05 09:51:33;;;;;;;;;;;;;;;;;;5098797;28;19969;-86
2022/08/05 09:54:00;;;;;;;;;;;;;;;;;;5098750;28;19925;-86
2022/08/05 09:56:29;;;;;;;;;;;;;;;;;;5099277;28;19931;-87
2022/08/05 09:58:57;;;;;;;;;;;;;;;;;;5117476;27;19930;-88
2022/08/05 10:01:23;;;;;;;;;;;;;;;;;;5119635;27;19946;-91
2022/08/05 10:03:59;;;;;;;;;;;;;;;;;;5109170;28;19924;-88
2022/08/05 10:06:26;;;;;;;;;;;;;;;;;;5098324;28;19932;-88
2022/08/05 10:08:53;;;;;;;;;;;;;;;;;;5099664;28;19997;-88
2022/08/05 10:11:20;;;;;;;;;;;;;;;;;;5099321;28;19924;-87
2022/08/05 10:13:47;;;;;;;;;;;;;;;;;;5098665;28;19930;-86
2022/08/05 10:16:31;;;;;;;;;;;;;;;;;;5099201;28;19986;-88
2022/08/05 10:18:58;;;;;;;;;;;;;;;;;;5098060;28;19924;-88
2022/08/05 10:21:24;;;;;;;;;;;;;;;;;;5098961;28;19924;-88
2022/08/05 10:23:51;;;;;;;;;;;;;;;;;;5098835;28;19932;-88
2022/08/05 10:26:18;;;;;;;;;;;;;;;;;;5099027;28;19931;-88
2022/08/05 10:28:45;;;;;;;;;;;;;;;;;;5099419;28;20418;-87
2022/08/05 10:31:14;;;;;;;;;;;;;;;;;;5099674;28;19924;-87
2022/08/05 10:33:40;;;;;;;;;;;;;;;;;;5098490;28;19961;-88
2022/08/05 10:36:07;;;;;;;;;;;;;;;;;;5097828;28;19924;-87
2022/08/05 10:38:35;;;;;;;;;;;;;;;;;;5097114;28;19977;-88
2022/08/05 10:41:05;;;;;;;;;;;;;;;;;;5097888;28;20344;-87
2022/08/05 10:43:36;;;;;;;;;;;;;;;;;;5097724;28;19924;-88
2022/08/05 10:46:04;;;;;;;;;;;;;;;;;;5098701;28;20268;-87
2022/08/05 10:48:36;;;;;;;;;;;;;;;;;;5097255;28;19996;-87
2022/08/05 10:51:08;;;;;;;;;;;;;;;;;;5097719;28;19928;-88
2022/08/05 10:53:35;;;;;;;;;;;;;;;;;;5098043;28;19928;-87
2022/08/05 10:56:03;;;;;;;;;;;;;;;;;;5099835;28;19982;-88
2022/08/05 10:58:30;;;;;;;;;;;;;;;;;;5097148;28;19946;-87
2022/08/05 11:00:56;;;;;;;;;;;;;;;;;;5098140;28;19924;-87
2022/08/05 11:03:23;;;;;;;;;;;;;;;;;;5097431;28;20520;-87
2022/08/05 11:06:04;;;;;;;;;;;;;;;;;;5097131;28;19982;-88
2022/08/05 11:08:30;;;;;;;;;;;;;;;;;;5097496;28;20406;-87
2022/08/05 11:11:17;;;;;;;;;;;;;;;;;;5097971;28;19954;-87
2022/08/05 11:13:44;;;;;;;;;;;;;;;;;;5096801;28;19988;-87
2022/08/05 11:16:23;;;;;;;;;;;;;;;;;;5098027;28;20294;-88
2022/08/05 11:19:05;;;;;;;;;;;;;;;;;;5109658;28;19930;-88
2022/08/05 11:21:32;;;;;;;;;;;;;;;;;;5112150;28;19922;-88
2022/08/05 11:24:22;;;;;;;;;;;;;;;;;;5114160;27;19908;-87
2022/08/05 11:26:49;;;;;;;;;;;;;;;;;;5114499;28;19970;-87
2022/08/05 11:29:34;;;;;;;;;;;;;;;;;;5107510;28;19924;-86
2022/08/05 11:32:15;;;;;;;;;;;;;;;;;;5110775;28;19925;-87
2022/08/05 11:34:42;;;;;;;;;;;;;;;;;;5105969;28;19928;-88
2022/08/05 11:37:10;;;;;;;;;;;;;;;;;;5105889;28;20348;-88
2022/08/05 11:39:51;;;;;;;;;;;;;;;;;;5114608;27;19912;-87
2022/08/05 11:42:23;;;;;;;;;;;;;;;;;;5118605;27;19913;-87
2022/08/05 11:44:51;;;;;;;;;;;;;;;;;;5115603;27;19950;-88
2022/08/05 11:47:20;;;;;;;;;;;;;;;;;;5099755;28;19924;-88
2022/08/05 11:49:47;;;;;;;;;;;;;;;;;;5098163;28;19924;-88
2022/08/05 11:52:22;;;;;;;;;;;;;;;;;;5099282;28;19934;-88
2022/08/05 11:55:12;;;;;;;;;;;;;;;;;;5098984;28;19998;-89
2022/08/05 11:57:44;;;;;;;;;;;;;;;;;;5098089;28;19924;-88
2022/08/05 12:06:31;;;;;;;;;;;;;;;;;;5050206;28;19932;-87
2022/08/05 12:09:10;;;;;;;;;;;;;;;;;;5053394;28;19933;-87
2022/08/05 12:11:46;;;;;;;;;;;;;;;;;;5092679;28;19951;-87
2022/08/05 12:14:12;;;;;;;;;;;;;;;;;;5100265;28;20387;-87
2022/08/05 12:16:41;;;;;;;;;;;;;;;;;;5101163;28;19977;-88
2022/08/05 12:19:12;;;;;;;;;;;;;;;;;;5096136;28;19928;-88
2022/08/05 12:21:43;;;;;;;;;;;;;;;;;;5096108;28;19924;-88
2022/08/05 12:24:15;;;;;;;;;;;;;;;;;;5097569;28;19924;-87
2022/08/05 12:26:46;;;;;;;;;;;;;;;;;;5096633;28;20406;-88
2022/08/05 12:29:14;;;;;;;;;;;;;;;;;;5096436;28;19924;-88
2022/08/05 12:31:45;;;;;;;;;;;;;;;;;;5096513;28;19939;-87
2022/08/05 12:34:12;;;;;;;;;;;;;;;;;;5096197;28;19924;-87
2022/08/05 12:36:38;;;;;;;;;;;;;;;;;;5099802;28;19931;-88
2022/08/05 12:39:06;;;;;;;;;;;;;;;;;;5108464;28;19924;-88
2022/08/05 12:41:37;;;;;;;;;;;;;;;;;;5105192;28;19924;-88
2022/08/05 12:46:57;;;;;;;;;;;;;;;;;;5099066;28;19924;-87
2022/08/05 12:49:23;;;;;;;;;;;;;;;;;;5099796;28;19924;-87
2022/08/05 12:51:51;;;;;;;;;;;;;;;;;;5098793;28;19924;-88
2022/08/05 12:54:19;;;;;;;;;;;;;;;;;;5098384;28;19936;-88
2022/08/05 12:56:49;;;;;;;;;;;;;;;;;;5097823;28;20466;-88
2022/08/05 12:59:17;;;;;;;;;;;;;;;;;;5097503;28;19963;-88
2022/08/05 13:01:46;;;;;;;;;;;;;;;;;;5103140;28;19928;-88
2022/08/05 13:04:13;;;;;;;;;;;;;;;;;;5102390;28;19924;-87
2022/08/05 13:06:43;;;;;;;;;;;;;;;;;;5102119;28;19924;-87
2022/08/05 13:09:11;;;;;;;;;;;;;;;;;;5102634;28;19932;-87
2022/08/05 13:11:40;;;;;;;;;;;;;;;;;;5110129;27;19938;-86
2022/08/05 13:14:11;;;;;;;;;;;;;;;;;;5120985;27;19908;-88
2022/08/05 13:16:45;;;;;;;;;;;;;;;;;;5119946;27;19932;-87
2022/08/05 13:19:12;;;;;;;;;;;;;;;;;;5103412;28;19955;-87
2022/08/05 13:21:39;;;;;;;;;;;;;;;;;;5102436;28;19931;-87
2022/08/05 13:24:06;;;;;;;;;;;;;;;;;;5108170;27;20019;-87
2022/08/05 13:26:33;;;;;;;;;;;;;;;;;;5118649;28;19924;-87
2022/08/05 13:28:59;;;;;;;;;;;;;;;;;;5118879;27;19924;-87
2022/08/05 13:31:27;;;;;;;;;;;;;;;;;;5113214;28;19947;-87
2022/08/05 13:33:54;;;;;;;;;;;;;;;;;;5114195;27;19924;-88
2022/08/05 13:36:23;;;;;;;;;;;;;;;;;;5105255;28;19924;-88
2022/08/05 13:38:49;;;;;;;;;;;;;;;;;;5105168;28;19928;-87
2022/08/05 13:41:19;;;;;;;;;;;;;;;;;;5100537;28;19928;-86
2022/08/05 13:43:48;;;;;;;;;;;;;;;;;;5106376;28;19932;-88
2022/08/05 13:46:16;;;;;;;;;;;;;;;;;;5101941;28;19924;-87
2022/08/05 13:48:47;;;;;;;;;;;;;;;;;;5100810;28;20401;-87
2022/08/05 13:51:13;;;;;;;;;;;;;;;;;;5102558;28;20011;-87
2022/08/05 13:53:40;;;;;;;;;;;;;;;;;;5103765;28;19924;-87
2022/08/05 13:56:07;;;;;;;;;;;;;;;;;;5103650;28;19997;-86
2022/08/05 13:58:34;;;;;;;;;;;;;;;;;;5099681;28;20353;-87
2022/08/05 14:01:04;;;;;;;;;;;;;;;;;;5099154;28;19924;-86
2022/08/05 14:03:30;;;;;;;;;;;;;;;;;;5098258;28;20291;-86
2022/08/05 14:05:57;;;;;;;;;;;;;;;;;;5097657;28;19957;-86
2022/08/05 14:08:23;;;;;;;;;;;;;;;;;;5097625;28;19931;-86
2022/08/05 14:10:50;;;;;;;;;;;;;;;;;;5096013;28;20345;-86
2022/08/05 14:13:16;;;;;;;;;;;;;;;;;;5096269;28;19978;-87
2022/08/05 14:15:43;;;;;;;;;;;;;;;;;;5096503;28;19931;-87
2022/08/05 14:18:10;;;;;;;;;;;;;;;;;;5096277;28;19931;-87
2022/08/05 14:20:36;;;;;;;;;;;;;;;;;;5095938;28;19982;-86
2022/08/05 14:23:04;;;;;;;;;;;;;;;;;;5096299;28;20371;-86
2022/08/05 14:25:31;;;;;;;;;;;;;;;;;;5095946;28;19927;-87
2022/08/05 14:27:57;;;;;;;;;;;;;;;;;;5097499;28;19928;-87
2022/08/05 14:30:25;;;;;;;;;;;;;;;;;;5097176;28;19931;-87
2022/08/05 14:32:51;;;;;;;;;;;;;;;;;;5097591;28;19959;-88
2022/08/05 14:35:18;;;;;;;;;;;;;;;;;;5097994;28;19924;-87
2022/08/05 14:37:45;;;;;;;;;;;;;;;;;;5098116;28;19970;-87
2022/08/05 14:40:13;;;;;;;;;;;;;;;;;;5106970;28;19924;-89
2022/08/05 14:42:40;;;;;;;;;;;;;;;;;;5101776;28;19924;-87
2022/08/05 14:45:08;;;;;;;;;;;;;;;;;;5100463;28;19931;-86
2022/08/05 14:47:35;;;;;;;;;;;;;;;;;;5099751;28;19954;-85
2022/08/05 14:50:01;;;;;;;;;;;;;;;;;;5110704;28;19924;-88
2022/08/05 14:52:28;;;;;;;;;;;;;;;;;;5108004;28;19973;-88
2022/08/05 14:54:54;;;;;;;;;;;;;;;;;;5103778;28;19946;-87
2022/08/05 14:57:22;;;;;;;;;;;;;;;;;;5101044;28;19946;-87
2022/08/05 14:59:48;;;;;;;;;;;;;;;;;;5104357;28;19928;-88
2022/08/05 15:02:15;;;;;;;;;;;;;;;;;;5113418;28;19924;-87
2022/08/05 15:04:42;;;;;;;;;;;;;;;;;;5112160;28;19928;-87
2022/08/05 15:07:09;;;;;;;;;;;;;;;;;;5105006;28;19924;-87
2022/08/05 15:09:35;;;;;;;;;;;;;;;;;;5099233;28;19924;-87
2022/08/05 15:12:02;;;;;;;;;;;;;;;;;;5098786;28;19977;-87
2022/08/05 15:14:30;;;;;;;;;;;;;;;;;;5097300;28;20271;-87
2022/08/05 15:16:57;;;;;;;;;;;;;;;;;;5110203;28;19967;-87
2022/08/05 15:19:23;;;;;;;;;;;;;;;;;;5125628;22;20951;-68
2022/08/05 15:21:50;;;;;;;;;;;;;;;;;;5092694;28;19933;-67
2022/08/05 15:24:16;;;;;;;;;;;;;;;;;;5092622;28;20030;-65
2022/08/05 15:26:43;;;;;;;;;;;;;;;;;;5092950;28;20315;-66
2022/08/05 15:29:10;;;;;;;;;;;;;;;;;;5106471;22;19928;-63
2022/08/05 15:31:38;;;;;;;;;;;;;;;;;;5116592;28;19924;-63
2022/08/05 15:34:04;;;;;;;;;;;;;;;;;;5098661;28;19928;-64
2022/08/05 15:36:31;;;;;;;;;;;;;;;;;;5096667;28;20010;-63
2022/08/05 15:38:57;;;;;;;;;;;;;;;;;;5096530;28;19924;-65
2022/08/05 15:41:24;;;;;;;;;;;;;;;;;;5096873;28;19988;-63
2022/08/05 15:43:51;;;;;;;;;;;;;;;;;;5097440;28;20465;-62
2022/08/05 15:46:19;;;;;;;;;;;;;;;;;;5097683;28;19924;-64
2022/08/05 15:48:47;;;;;;;;;;;;;;;;;;5097491;28;19924;-64
2022/08/05 15:51:13;;;;;;;;;;;;;;;;;;5096426;28;19935;-65
2022/08/05 15:53:40;;;;;;;;;;;;;;;;;;5097827;28;20376;-63
2022/08/05 15:56:07;;;;;;;;;;;;;;;;;;5096310;28;19925;-63
2022/08/05 15:58:34;;;;;;;;;;;;;;;;;;5096789;28;19925;-64
2022/08/05 16:01:01;;;;;;;;;;;;;;;;;;5095900;28;19932;-63
2022/08/05 16:03:28;;;;;;;;;;;;;;;;;;5096973;28;19924;-63
2022/08/05 16:05:55;;;;;;;;;;;;;;;;;;5096554;28;19977;-63
2022/08/05 16:08:22;;;;;;;;;;;;;;;;;;5096664;28;20397;-63
2022/08/05 16:10:49;;;;;;;;;;;;;;;;;;5100555;28;19969;-63
2022/08/05 16:13:15;;;;;;;;;;;;;;;;;;5100937;28;19928;-63
2022/08/05 16:15:42;;;;;;;;;;;;;;;;;;5100392;28;19928;-63
2022/08/05 16:18:09;;;;;;;;;;;;;;;;;;5100432;28;19924;-63
2022/08/05 16:20:36;;;;;;;;;;;;;;;;;;5100429;28;19959;-63
2022/08/05 16:23:04;;;;;;;;;;;;;;;;;;5100371;28;19928;-63
2022/08/05 16:25:30;;;;;;;;;;;;;;;;;;5100891;28;19923;-63
2022/08/05 16:27:57;;;;;;;;;;;;;;;;;;5100699;28;19969;-64
2022/08/05 16:30:23;;;;;;;;;;;;;;;;;;5099619;28;19924;-64
2022/08/05 16:32:50;;;;;;;;;;;;;;;;;;5099800;28;20494;-63
2022/08/05 16:35:16;;;;;;;;;;;;;;;;;;5099783;28;20300;-64
2022/08/05 16:37:43;;;;;;;;;;;;;;;;;;5099492;28;20416;-63
2022/08/05 16:40:11;;;;;;;;;;;;;;;;;;5099465;28;19935;-64
2022/08/05 16:42:38;;;;;;;;;;;;;;;;;;5099537;28;19924;-64
2022/08/05 16:45:05;;;;;;;;;;;;;;;;;;5100166;28;19935;-64
2022/08/05 16:47:33;;;;;;;;;;;;;;;;;;5115366;28;20539;-65
2022/08/05 16:50:00;;;;;;;;;;;;;;;;;;5099400;28;19924;-64
2022/08/05 16:52:27;;;;;;;;;;;;;;;;;;5100032;28;20337;-64
2022/08/05 16:54:53;;;;;;;;;;;;;;;;;;5099586;28;19984;-63
2022/08/05 16:57:23;;;;;;;;;;;;;;;;;;5099640;28;19978;-63
2022/08/05 16:59:50;;;;;;;;;;;;;;;;;;5098806;28;19924;-63
2022/08/05 17:02:16;;;;;;;;;;;;;;;;;;5078971;28;19968;-64
2022/08/05 17:04:43;;;;;;;;;;;;;;;;;;5079135;28;19932;-64
2022/08/05 17:07:09;;;;;;;;;;;;;;;;;;5079117;28;19932;-64
2022/08/05 17:09:36;;;;;;;;;;;;;;;;;;5078520;28;19925;-64